Thursday, July 18, 2019, 9:15 AM EDT
Back to Local

KEWN, New Bern, Craven County Regional Airport

Location: New Bern, NC, United States Lat: 35.068
Local Time: 9:15 AM EDT (13:15 GMT) Lon: -77.047
Time Zone: US/Eastern Elev: 16 ft

Show me the last for .
Show Coded

Time T Td Feel RH Dir Speed Gust Alt SLP Vis Weather Sky Remarks
2019-07-18 08:54 83 80 95 91 220° 9 - 30.01 30.00 10 FEW013 None
2019-07-18 07:54 81 79 91 93 210° 8 - 30.00 30.00 10 CLR 6-hr Min Temp (8am): 79.0°F
6-hr Max Temp (8am): 81.0°F
2019-07-18 06:54 80 79 90 96 200° 7 - 29.99 29.99 10 CLR None
2019-07-18 05:54 80 78 89 93 200° 7 - 29.99 29.99 10 CLR None
2019-07-18 04:54 79 78 87 97 180° 7 - 30.00 29.99 10 CLR None
2019-07-18 03:54 79 78 87 97 190° 3 - 30.01 30.01 10 CLR None
2019-07-18 02:54 79 78 87 97 240° 5 - 30.03 30.02 10 FEW075 None
2019-07-18 01:54 80 78 89 93 210° 7 - 30.03 30.02 10 CLR 6-hr Min Temp (2am): 80.1°F
6-hr Max Temp (2am): 84.0°F
2019-07-18 00:54 80 78 89 93 210° 7 - 30.03 30.03 10 CLR 24-hr Min Temp (1am): 78.1°F
24-hr Max Temp (1am): 93.9°F
2019-07-17 23:54 81 78 90 91 200° 10 - 30.02 30.02 10 CLR None
2019-07-17 22:54 81 77 89 87 200° 9 - 30.02 30.01 10 CLR None
2019-07-17 21:54 81 77 89 87 180° 8 - 30.02 30.01 10 CLR None
2019-07-17 20:54 82 77 91 84 190° 8 - 30.02 30.02 10 CLR None
2019-07-17 19:54 84 77 94 79 180° 9 - 30.02 30.01 10 CLR 6-hr Min Temp (8pm): 84.0°F
6-hr Max Temp (8pm): 93.9°F
2019-07-17 18:54 87 76 97 69 190° 9 - 30.01 30.01 10 CLR None
2019-07-17 17:54 89 76 100 65 180° 14 23 30.00 30.00 10 CLR None
2019-07-17 16:54 91 78 106 66 170° 15 - 30.02 30.01 10 CLR None
2019-07-17 15:54 92 80 110 68 180° 12 - 30.03 30.02 10 CLR None
2019-07-17 14:54 93 81 113 68 190° 9 - 30.05 30.04 10 CLR None
2019-07-17 13:54 94 79 112 62 Variable 6 - 30.06 30.06 10 SCT041 6-hr Min Temp (2pm): 81.0°F
6-hr Max Temp (2pm): 93.9°F
2019-07-17 12:54 92 79 108 66 180° 5 - 30.08 30.08 10 FEW037 None
2019-07-17 11:54 91 78 106 66 260° 5 - 30.09 30.09 10 CLR None
2019-07-17 10:54 89 77 102 67 240° 6 - 30.10 30.09 10 CLR None
2019-07-17 09:54 86 79 99 79 240° 7 - 30.10 30.10 10 CLR None

Support USWX by starting your Amazon purchase here.